X  Sluiten METAR luchtvaart weer gegevens      EHAM Amsterdam Airport Schiphol
Temperatuur
18°C Temperatuur
15°C Dauwpunt
83% Vochtigheid



Wind
14 KM/U
9 MPH
4 M/S
8 KTS



50°
NO
Huidig weer

Wat bewolking Wat bewolking
Luchtdruk 1009.92 (hPa) - 29.82 (inHg)
Zicht 6.2 (mijl) - 10 (km)
Vliegveld
Vliegveld code EHAM

Locatie : Amsterdam Airport Schiphol
Afstand: 25 (km)

Metar:
EHAM 192125Z 05008KT 9999 FEW009 BKN015 18/15 Q1010 TEMPO FM2230 3000 TSRA BKN015 SCT070CB

Tijd: 19-06-2021 23:25 CEST